Time;durP1;ratioP1;P1;durP2;ratioP2;P2;SDS_P1;SDS_P2;PMS_P1;PMS_P2;Temp;Humidity;BMP_temperature;BMP_pressure;BME280_temperature;BME280_humidity;BME280_pressure;Samples;Min_cycle;Max_cycle;Signal;HPM_P1;HPM_P2
2024/03/20 00:00:26;;;;;;;31.50;12.60;;;;;;;2.28;92.64;100682.13;1745819;82;21300;-75
2024/03/20 00:02:56;;;;;;;30.20;12.78;;;;;;;2.28;92.79;100683.98;1745519;82;21459;-76
2024/03/20 00:05:25;;;;;;;25.62;12.45;;;;;;;2.28;92.89;100684.84;1745722;82;21551;-74
2024/03/20 00:07:55;;;;;;;27.52;11.73;;;;;;;2.29;93.01;100680.28;1709742;83;21061;-74
2024/03/20 00:10:24;;;;;;;23.00;11.83;;;;;;;2.26;92.97;100682.77;1746486;82;21079;-74
2024/03/20 00:12:54;;;;;;;23.60;12.13;;;;;;;2.24;93.00;100677.99;1752259;82;21498;-75
2024/03/20 00:15:23;;;;;;;24.52;12.03;;;;;;;2.22;93.04;100677.27;1745780;82;21082;-75
2024/03/20 00:17:52;;;;;;;28.73;12.73;;;;;;;2.20;93.09;100672.01;1710093;83;21469;-75
2024/03/20 00:20:21;;;;;;;25.02;13.15;;;;;;;2.20;93.18;100675.20;1748632;82;21059;-74
2024/03/20 00:22:51;;;;;;;22.60;11.38;;;;;;;2.18;93.18;100665.88;1745565;82;21015;-74
2024/03/20 00:25:20;;;;;;;23.00;11.80;;;;;;;2.14;93.20;100663.09;1710035;83;21033;-74
2024/03/20 00:27:51;;;;;;;22.05;11.35;;;;;;;2.08;93.15;100660.94;1745639;82;21063;-75
2024/03/20 00:30:19;;;;;;;25.92;10.98;;;;;;;2.06;93.30;100658.02;1745730;82;21027;-74
2024/03/20 00:32:48;;;;;;;25.40;10.55;;;;;;;2.05;93.42;100660.36;1709927;84;21076;-75
2024/03/20 00:35:17;;;;;;;20.15;9.55;;;;;;;2.02;93.44;100654.73;1745594;82;22042;-73
2024/03/20 00:37:46;;;;;;;23.45;10.88;;;;;;;2.00;93.50;100652.66;1710078;83;21033;-75
2024/03/20 00:40:15;;;;;;;20.35;10.40;;;;;;;2.00;93.57;100651.31;1745725;82;21050;-73
2024/03/20 00:42:45;;;;;;;19.98;9.15;;;;;;;2.00;93.63;100647.26;1709858;84;21017;-75
2024/03/20 00:45:14;;;;;;;20.17;9.40;;;;;;;1.99;93.77;100646.05;1745844;82;21063;-75
2024/03/20 00:47:43;;;;;;;13.93;6.58;;;;;;;2.02;94.01;100650.67;1745610;82;21035;-75
2024/03/20 00:50:13;;;;;;;11.78;6.12;;;;;;;2.07;94.27;100653.83;1709958;83;21461;-75
2024/03/20 00:52:42;;;;;;;10.28;5.45;;;;;;;2.11;94.46;100649.00;1745772;82;21046;-74
2024/03/20 00:55:12;;;;;;;8.63;5.22;;;;;;;2.14;94.54;100652.28;1708684;84;21132;-75
2024/03/20 00:57:43;;;;;;;11.78;6.08;;;;;;;2.15;94.67;100650.44;1745891;82;21463;-74
2024/03/20 01:00:13;;;;;;;13.50;6.65;;;;;;;2.17;94.79;100647.95;1709772;84;21471;-74
2024/03/20 01:02:43;;;;;;;11.43;6.03;;;;;;;2.21;94.82;100653.44;1745405;82;21067;-74
2024/03/20 01:05:12;;;;;;;11.88;5.95;;;;;;;2.23;94.85;100654.16;1709879;84;21429;-75
2024/03/20 01:07:41;;;;;;;10.03;5.40;;;;;;;2.25;94.78;100659.92;1745573;82;21023;-75
2024/03/20 01:10:10;;;;;;;11.20;5.87;;;;;;;2.26;94.75;100658.44;1745666;82;21031;-74
2024/03/20 01:12:40;;;;;;;9.13;5.12;;;;;;;2.28;94.62;100661.00;1709844;84;21060;-75
2024/03/20 01:15:10;;;;;;;10.55;5.30;;;;;;;2.29;94.55;100664.06;1745583;82;21067;-74
2024/03/20 01:17:39;;;;;;;9.55;4.55;;;;;;;2.29;94.54;100663.56;1709832;84;21033;-74
2024/03/20 01:20:10;;;;;;;7.60;4.90;;;;;;;2.30;94.48;100657.16;1745659;82;21086;-75
2024/03/20 01:22:38;;;;;;;8.43;4.78;;;;;;;2.29;94.35;100657.30;1745786;82;21090;-74
2024/03/20 01:25:09;;;;;;;9.38;4.75;;;;;;;2.27;94.29;100652.03;1745554;82;21479;-75
2024/03/20 01:27:38;;;;;;;10.58;5.03;;;;;;;2.27;94.23;100651.18;1709869;84;21444;-75
2024/03/20 01:30:29;;;;;;;8.98;5.05;;;;;;;2.26;94.23;100649.47;1745763;82;21099;-75
2024/03/20 01:32:58;;;;;;;8.98;4.83;;;;;;;2.28;94.23;100646.13;1709550;84;21555;-75
2024/03/20 01:35:27;;;;;;;6.45;3.92;;;;;;;2.27;94.08;100651.18;1709567;84;21515;-74
2024/03/20 01:37:56;;;;;;;7.62;4.55;;;;;;;2.27;94.08;100657.94;1709671;84;21045;-75
2024/03/20 01:40:26;;;;;;;7.42;4.80;;;;;;;2.23;93.89;100654.16;1709391;84;21037;-75
2024/03/20 01:42:55;;;;;;;11.03;5.40;;;;;;;2.21;93.85;100646.69;1709495;84;21017;-74
2024/03/20 01:45:24;;;;;;;9.25;5.30;;;;;;;2.19;93.68;100650.02;1709637;84;21021;-75
2024/03/20 01:47:53;;;;;;;12.13;5.58;;;;;;;2.15;93.61;100649.94;1709576;84;21441;-75
2024/03/20 01:50:22;;;;;;;11.10;5.67;;;;;;;2.13;93.48;100642.96;1709814;83;21500;-75
2024/03/20 01:52:55;;;;;;;12.28;6.47;;;;;;;2.12;93.38;100639.90;1687333;83;21018;-74
2024/03/20 01:55:26;;;;;;;11.78;6.80;;;;;;;2.10;93.28;100641.39;1709431;83;21140;-74
2024/03/20 01:57:54;;;;;;;15.00;7.20;;;;;;;2.04;93.20;100637.88;1709697;83;21134;-74
2024/03/20 02:00:24;;;;;;;15.80;7.87;;;;;;;2.02;93.25;100640.36;1709567;83;21036;-74
2024/03/20 02:02:55;;;;;;;13.75;7.22;;;;;;;1.98;93.31;100629.47;1709609;84;21116;-75
2024/03/20 02:05:24;;;;;;;12.30;7.50;;;;;;;1.97;93.33;100631.31;1686513;84;21123;-76
2024/03/20 02:07:54;;;;;;;12.45;7.50;;;;;;;1.94;93.32;100633.41;1709716;83;21060;-75
2024/03/20 02:10:24;;;;;;;12.30;6.67;;;;;;;1.90;93.29;100624.22;1709767;84;21084;-75
2024/03/20 02:13:04;;;;;;;13.48;7.28;;;;;;;1.90;93.27;100620.66;1709640;84;21116;-75
2024/03/20 02:15:34;;;;;;;13.78;7.90;;;;;;;1.89;93.25;100624.36;1709632;83;21037;-75
2024/03/20 02:18:03;;;;;;;15.85;8.08;;;;;;;1.89;93.45;100621.16;1709468;84;21021;-74
2024/03/20 02:20:32;;;;;;;15.60;8.10;;;;;;;1.93;93.60;100624.44;1709572;84;21071;-75
2024/03/20 02:23:02;;;;;;;15.72;7.85;;;;;;;1.97;93.57;100626.41;1709781;83;21081;-74
2024/03/20 02:25:32;;;;;;;18.75;8.85;;;;;;;1.97;93.57;100623.70;1709806;84;21460;-73
2024/03/20 02:28:01;;;;;;;16.00;7.87;;;;;;;1.94;93.53;100626.16;1709681;84;21045;-75
2024/03/20 02:30:31;;;;;;;14.07;7.28;;;;;;;1.91;93.54;100616.97;1709628;84;21084;-74
2024/03/20 02:33:00;;;;;;;14.50;6.70;;;;;;;1.92;93.56;100622.73;1709709;84;21080;-74
2024/03/20 02:35:30;;;;;;;14.98;6.55;;;;;;;1.95;93.70;100621.61;1709579;84;21096;-75
2024/03/20 02:37:59;;;;;;;13.88;6.67;;;;;;;1.98;93.73;100624.06;1709518;84;21485;-75
2024/03/20 02:40:28;;;;;;;13.83;7.08;;;;;;;1.99;93.71;100632.03;1709799;83;21073;-75
2024/03/20 02:42:57;;;;;;;14.98;7.10;;;;;;;1.99;93.72;100623.92;1709697;83;21069;-76
2024/03/20 02:45:26;;;;;;;15.45;7.17;;;;;;;2.00;93.69;100618.88;1709577;84;21085;-74
2024/03/20 02:47:55;;;;;;;15.08;6.50;;;;;;;2.01;93.70;100617.89;1709772;83;21469;-75
2024/03/20 02:50:24;;;;;;;10.65;5.53;;;;;;;2.03;93.78;100629.42;1709857;83;21465;-75
2024/03/20 02:52:53;;;;;;;12.00;6.03;;;;;;;2.06;93.84;100631.84;1709698;84;21044;-75
2024/03/20 02:55:22;;;;;;;10.23;6.05;;;;;;;2.10;93.76;100634.63;1709773;84;21065;-75
2024/03/20 02:57:50;;;;;;;10.85;5.90;;;;;;;2.11;93.68;100635.48;1709985;83;21088;-75
2024/03/20 03:00:20;;;;;;;10.80;5.85;;;;;;;2.09;93.48;100640.17;1711107;83;21088;-74
2024/03/20 03:02:49;;;;;;;9.75;5.70;;;;;;;2.05;93.45;100640.09;1709771;84;21069;-75
2024/03/20 03:05:18;;;;;;;10.13;5.72;;;;;;;2.04;93.33;100631.62;1709767;84;21116;-74
2024/03/20 03:07:47;;;;;;;9.65;5.40;;;;;;;2.04;93.50;100634.33;1709621;84;21044;-75
2024/03/20 03:10:16;;;;;;;10.45;5.55;;;;;;;2.05;93.50;100631.48;1709757;83;21103;-75
2024/03/20 03:12:47;;;;;;;11.80;5.92;;;;;;;2.03;93.53;100629.42;1709569;84;21016;-74
2024/03/20 03:15:17;;;;;;;10.18;5.55;;;;;;;2.07;93.63;100634.05;1709538;83;21037;-75
2024/03/20 03:17:47;;;;;;;11.60;5.72;;;;;;;2.10;93.73;100637.33;1709729;83;21056;-74
2024/03/20 03:20:16;;;;;;;10.13;5.80;;;;;;;2.11;93.68;100632.29;1709696;84;21068;-74
2024/03/20 03:22:46;;;;;;;10.70;6.03;;;;;;;2.12;93.73;100636.70;1709500;84;21009;-75
2024/03/20 03:25:15;;;;;;;12.13;6.42;;;;;;;2.15;93.74;100640.48;1709675;83;21020;-75
2024/03/20 03:27:44;;;;;;;10.15;5.97;;;;;;;2.15;93.73;100635.07;1709730;84;21104;-75
2024/03/20 03:30:13;;;;;;;10.72;6.08;;;;;;;2.16;93.75;100634.08;1709672;83;21041;-73
2024/03/20 03:32:42;;;;;;;11.12;6.33;;;;;;;2.15;93.74;100633.72;1709716;84;21068;-74
2024/03/20 03:35:13;;;;;;;13.18;7.03;;;;;;;2.15;93.84;100645.88;1709513;83;21076;-74
2024/03/20 03:37:42;;;;;;;12.70;6.25;;;;;;;2.14;94.00;100649.58;1709766;84;21050;-75
2024/03/20 03:40:13;;;;;;;11.88;6.75;;;;;;;2.17;94.22;100655.20;1709770;84;21016;-75
2024/03/20 03:42:44;;;;;;;11.35;6.62;;;;;;;2.20;94.42;100656.28;1710317;84;21072;-75
2024/03/20 03:45:13;;;;;;;11.68;6.15;;;;;;;2.21;94.62;100649.88;1709822;84;21076;-74
2024/03/20 03:47:42;;;;;;;10.35;5.95;;;;;;;2.21;94.91;100657.50;1709620;84;21042;-74
2024/03/20 03:50:12;;;;;;;15.58;6.03;;;;;;;2.21;95.16;100657.50;1709644;84;20993;-73
2024/03/20 03:52:41;;;;;;;10.48;5.95;;;;;;;2.21;95.43;100653.94;1709617;84;21060;-73
2024/03/20 03:55:10;;;;;;;12.35;6.85;;;;;;;2.23;95.78;100656.00;1709825;83;21076;-75
2024/03/20 03:57:39;;;;;;;13.28;7.35;;;;;;;2.26;96.19;100653.03;1709778;84;21060;-75
2024/03/20 04:00:10;;;;;;;14.33;7.53;;;;;;;2.28;96.56;100648.34;1709732;83;21037;-74
2024/03/20 04:02:39;;;;;;;13.48;6.92;;;;;;;2.32;96.93;100644.86;1709786;83;21068;-74
2024/03/20 04:05:08;;;;;;;12.95;6.83;;;;;;;2.35;97.27;100640.52;1709821;84;21523;-75
2024/03/20 04:07:38;;;;;;;14.90;8.40;;;;;;;2.40;97.61;100638.26;1709981;83;21052;-75
2024/03/20 04:12:49;;;;;;;13.03;7.22;;;;;;;2.45;98.19;100638.20;1776325;81;21064;-74
2024/03/20 04:15:19;;;;;;;13.43;7.55;;;;;;;2.50;98.52;100637.77;1776370;81;21041;-76
2024/03/20 04:17:48;;;;;;;11.75;6.62;;;;;;;2.54;98.80;100638.70;1776343;81;21040;-75
2024/03/20 04:20:17;;;;;;;12.55;6.92;;;;;;;2.59;99.17;100637.44;1776393;81;21100;-76
2024/03/20 04:22:47;;;;;;;13.15;7.53;;;;;;;2.65;99.56;100645.88;1776568;81;21013;-75
2024/03/20 04:25:16;;;;;;;10.93;6.65;;;;;;;2.72;99.85;100647.52;1776423;81;21048;-75
2024/03/20 04:27:45;;;;;;;10.55;6.10;;;;;;;2.76;100.00;100653.00;1776447;81;21032;-74
2024/03/20 04:30:15;;;;;;;12.50;6.53;;;;;;;2.82;100.00;100643.81;1776395;81;20973;-75
2024/03/20 04:32:45;;;;;;;11.30;6.50;;;;;;;2.86;100.00;100652.01;1776280;81;21060;-75
2024/03/20 04:35:14;;;;;;;11.53;6.55;;;;;;;2.90;100.00;100655.78;1776430;81;21084;-75
2024/03/20 04:37:44;;;;;;;10.32;6.05;;;;;;;2.93;100.00;100643.32;1776253;81;21053;-76
2024/03/20 04:40:13;;;;;;;10.35;5.78;;;;;;;2.97;100.00;100647.45;1754698;81;21982;-75
2024/03/20 04:42:42;;;;;;;8.83;5.75;;;;;;;2.99;100.00;100657.13;1776426;81;21053;-75
2024/03/20 04:45:14;;;;;;;10.25;6.25;;;;;;;3.03;100.00;100669.38;1776246;81;21527;-75
2024/03/20 04:47:43;;;;;;;12.10;6.83;;;;;;;3.07;100.00;100665.89;1776240;81;21064;-75
2024/03/20 04:50:12;;;;;;;10.28;6.22;;;;;;;3.10;100.00;100671.02;1776331;81;20981;-75
2024/03/20 04:52:41;;;;;;;11.50;6.12;;;;;;;3.12;100.00;100686.62;1776264;80;21057;-75
2024/03/20 04:55:10;;;;;;;12.78;6.90;;;;;;;3.11;100.00;100683.55;1776328;81;21041;-75
2024/03/20 04:57:38;;;;;;;10.98;6.50;;;;;;;3.10;100.00;100675.08;1776306;81;21445;-75
2024/03/20 05:00:18;;;;;;;10.20;5.92;;;;;;;3.11;100.00;100684.91;1776227;80;21452;-75
2024/03/20 05:02:39;;;;;;;9.43;5.90;;;;;;;3.11;100.00;100682.20;1773065;81;21069;-75
2024/03/20 05:05:09;;;;;;;10.78;5.92;;;;;;;3.08;100.00;100675.72;1776487;81;21080;-74
2024/03/20 05:07:38;;;;;;;9.73;6.00;;;;;;;3.07;100.00;100680.78;1776453;81;21041;-74
2024/03/20 05:10:09;;;;;;;10.20;6.15;;;;;;;3.04;100.00;100689.19;1776155;81;21490;-74
2024/03/20 05:12:39;;;;;;;10.65;5.78;;;;;;;3.01;100.00;100696.23;1776245;81;21040;-75
2024/03/20 05:15:08;;;;;;;13.88;6.28;;;;;;;3.00;100.00;100693.17;1776204;81;21578;-75
2024/03/20 05:17:38;;;;;;;11.48;5.12;;;;;;;3.05;100.00;100696.31;1776255;81;21029;-71
2024/03/20 05:20:09;;;;;;;11.22;5.30;;;;;;;3.03;100.00;100700.52;1776398;81;21052;-75
2024/03/20 05:22:38;;;;;;;5.78;3.80;;;;;;;3.01;100.00;100708.42;1776456;80;21094;-75
2024/03/20 05:25:09;;;;;;;8.38;4.25;;;;;;;3.00;100.00;100701.30;1776000;81;21281;-75
2024/03/20 05:27:40;;;;;;;8.15;4.75;;;;;;;2.97;100.00;100709.20;1776428;81;21013;-75
2024/03/20 05:30:11;;;;;;;10.80;4.33;;;;;;;2.93;100.00;100714.54;1776576;81;21033;-74
2024/03/20 05:32:40;;;;;;;6.67;4.12;;;;;;;2.87;100.00;100720.52;1777293;81;20993;-75
2024/03/20 05:35:10;;;;;;;7.55;4.45;;;;;;;2.84;100.00;100720.80;1776560;81;21104;-75
2024/03/20 05:37:39;;;;;;;12.20;4.58;;;;;;;2.80;100.00;100722.92;1776236;80;21445;-75
2024/03/20 05:40:09;;;;;;;5.87;3.75;;;;;;;2.78;100.00;100726.77;1776131;81;21504;-74
2024/03/20 05:42:38;;;;;;;7.00;4.35;;;;;;;2.78;100.00;100728.97;1776415;81;21060;-74
2024/03/20 05:45:10;;;;;;;7.80;4.60;;;;;;;2.79;100.00;100731.19;1776170;80;21060;-76
2024/03/20 05:47:39;;;;;;;9.03;4.60;;;;;;;2.79;100.00;100726.62;1776360;81;21084;-74
2024/03/20 05:50:11;;;;;;;6.53;4.10;;;;;;;2.82;100.00;100727.70;1776280;81;20997;-75
2024/03/20 05:52:40;;;;;;;8.75;3.80;;;;;;;2.84;100.00;100729.77;1778993;80;21064;-74
2024/03/20 05:55:10;;;;;;;6.53;3.90;;;;;;;2.85;100.00;100731.98;1776262;80;21476;-73
2024/03/20 05:57:39;;;;;;;6.25;3.95;;;;;;;2.83;100.00;100729.41;1776232;81;21017;-76
2024/03/20 06:00:14;;;;;;;5.53;3.45;;;;;;;2.79;100.00;100733.39;1776203;81;21001;-75
2024/03/20 06:02:41;;;;;;;6.85;3.98;;;;;;;2.75;100.00;100723.84;1776014;81;21052;-75
2024/03/20 06:05:10;;;;;;;7.37;3.72;;;;;;;2.74;99.93;100715.86;1776187;81;21468;-75
2024/03/20 06:07:40;;;;;;;9.20;4.10;;;;;;;2.71;99.84;100716.14;1776574;80;21505;-75
2024/03/20 06:10:10;;;;;;;8.33;4.17;;;;;;;2.66;99.64;100711.66;1754605;81;21080;-75
2024/03/20 06:12:40;;;;;;;10.10;4.80;;;;;;;2.63;99.55;100714.14;1776345;81;21057;-76
2024/03/20 06:15:22;;;;;;;12.80;4.80;;;;;;;2.62;99.70;100705.66;1812919;78;21027;-75
2024/03/20 06:17:51;;;;;;;8.45;4.60;;;;;;;2.65;99.96;100702.68;1775775;81;21035;-74
2024/03/20 06:20:20;;;;;;;10.90;4.55;;;;;;;2.71;100.00;100707.53;1814170;79;21003;-74
2024/03/20 06:22:49;;;;;;;10.58;4.90;;;;;;;2.78;100.00;100706.48;1775630;81;21062;-75
2024/03/20 06:25:19;;;;;;;9.78;5.03;;;;;;;2.82;100.00;100705.20;1745151;82;21049;-76
2024/03/20 06:27:49;;;;;;;11.90;5.35;;;;;;;2.86;100.00;100711.54;1814178;79;21031;-76
2024/03/20 06:30:18;;;;;;;9.00;4.70;;;;;;;2.94;100.00;100714.05;1775740;81;21461;-74
2024/03/20 06:32:48;;;;;;;13.78;5.35;;;;;;;3.00;100.00;100712.98;1814375;78;21000;-75
2024/03/20 06:35:17;;;;;;;14.73;5.40;;;;;;;3.03;100.00;100718.61;1775760;81;21047;-75
2024/03/20 06:37:47;;;;;;;13.20;5.15;;;;;;;3.07;100.00;100718.19;1744978;82;21060;-75
2024/03/20 06:40:16;;;;;;;8.85;5.08;;;;;;;3.14;100.00;100719.82;1814034;78;21066;-73
2024/03/20 06:42:46;;;;;;;8.40;4.83;;;;;;;3.18;100.00;100734.78;1775579;80;21039;-74
2024/03/20 06:45:15;;;;;;;9.83;5.20;;;;;;;3.26;100.00;100739.02;1745321;82;21473;-75
2024/03/20 06:47:44;;;;;;;8.93;4.62;;;;;;;3.29;100.00;100740.09;1814398;79;21043;-76
2024/03/20 06:50:14;;;;;;;11.83;4.95;;;;;;;3.29;99.54;100744.16;1775737;81;21043;-75
2024/03/20 06:52:43;;;;;;;9.80;4.50;;;;;;;3.29;99.50;100740.09;1745889;81;21004;-75
2024/03/20 06:55:14;;;;;;;6.67;4.30;;;;;;;3.33;99.48;100738.81;1814143;79;21007;-76
2024/03/20 06:57:43;;;;;;;10.48;4.90;;;;;;;3.39;99.38;100738.23;1814150;79;21499;-76
2024/03/20 07:00:17;;;;;;;10.88;4.40;;;;;;;3.42;99.15;100739.30;1814081;79;21489;-75
2024/03/20 07:02:48;;;;;;;6.42;4.35;;;;;;;3.43;98.75;100745.08;1775632;81;21051;-75
2024/03/20 07:05:17;;;;;;;7.05;4.45;;;;;;;3.41;98.62;100742.16;1814223;79;20999;-75
2024/03/20 07:07:47;;;;;;;11.45;5.47;;;;;;;3.43;98.53;100742.37;1775589;80;21019;-75
2024/03/20 07:10:17;;;;;;;8.13;4.40;;;;;;;3.42;98.35;100751.48;1744892;81;21068;-75
2024/03/20 07:12:47;;;;;;;8.35;4.75;;;;;;;3.44;98.24;100749.49;1814430;79;21019;-76
2024/03/20 07:15:17;;;;;;;7.55;4.28;;;;;;;3.45;98.15;100751.70;1775906;81;21094;-76
2024/03/20 07:17:46;;;;;;;10.13;4.55;;;;;;;3.46;97.93;100758.33;1745671;81;21079;-76
2024/03/20 07:20:15;;;;;;;8.25;4.22;;;;;;;3.44;97.71;100756.27;1745179;82;21021;-75
2024/03/20 07:22:44;;;;;;;7.87;4.33;;;;;;;3.45;97.63;100751.20;1814289;79;21483;-75
2024/03/20 07:25:13;;;;;;;7.97;4.50;;;;;;;3.44;97.37;100757.62;1775768;80;21020;-75
2024/03/20 07:27:42;;;;;;;8.78;4.42;;;;;;;3.37;96.85;100751.06;1814422;79;21003;-75
2024/03/20 07:30:13;;;;;;;7.00;4.37;;;;;;;3.28;96.53;100753.28;1775715;81;21045;-75
2024/03/20 07:32:42;;;;;;;12.95;4.50;;;;;;;3.24;96.72;100754.52;1814328;79;21027;-75
2024/03/20 07:35:12;;;;;;;9.80;4.70;;;;;;;3.22;96.83;100757.02;1775598;81;21050;-76
2024/03/20 07:37:42;;;;;;;6.30;4.10;;;;;;;3.24;96.99;100745.55;1814100;79;21011;-75
2024/03/20 07:40:14;;;;;;;9.75;4.60;;;;;;;3.24;96.95;100750.46;1775588;81;21031;-75
2024/03/20 07:42:43;;;;;;;8.28;4.90;;;;;;;3.21;96.86;100750.74;1814112;79;21466;-75
2024/03/20 07:45:12;;;;;;;8.03;4.58;;;;;;;3.19;96.80;100745.47;1775684;81;21102;-75
2024/03/20 07:47:42;;;;;;;10.95;5.22;;;;;;;3.16;96.87;100747.61;1745305;82;21077;-75
2024/03/20 07:50:18;;;;;;;9.70;5.20;;;;;;;3.16;97.08;100746.25;1814401;79;21011;-75
2024/03/20 07:53:00;;;;;;;9.43;5.10;;;;;;;3.18;97.29;100753.73;1775776;81;21412;-76
2024/03/20 07:55:30;;;;;;;11.40;5.90;;;;;;;3.18;97.32;100751.03;1744932;82;21037;-75
2024/03/20 07:58:00;;;;;;;10.75;6.08;;;;;;;3.15;97.36;100745.90;1814365;79;21102;-74
2024/03/20 08:00:29;;;;;;;8.35;4.90;;;;;;;3.16;97.60;100744.91;1775754;81;21049;-75
2024/03/20 08:02:59;;;;;;;12.85;6.08;;;;;;;3.20;97.84;100740.91;1745255;81;21041;-76
2024/03/20 08:05:28;;;;;;;14.13;5.45;;;;;;;3.22;97.91;100737.56;1814119;79;21042;-76
2024/03/20 08:07:57;;;;;;;10.28;5.42;;;;;;;3.27;98.13;100735.31;1775463;80;21031;-75
2024/03/20 08:10:27;;;;;;;11.73;5.20;;;;;;;3.33;98.30;100734.74;1814066;78;21451;-74
2024/03/20 08:12:56;;;;;;;9.60;5.45;;;;;;;3.40;98.39;100733.67;1775871;81;21015;-74
2024/03/20 08:15:26;;;;;;;10.72;5.00;;;;;;;3.41;98.13;100724.05;1716150;82;21056;-75
2024/03/20 08:17:55;;;;;;;10.98;6.00;;;;;;;3.45;98.19;100724.12;1814088;79;21007;-74
2024/03/20 08:20:24;;;;;;;9.55;5.62;;;;;;;3.53;98.34;100726.61;1775492;81;21051;-75
2024/03/20 08:22:54;;;;;;;11.22;6.37;;;;;;;3.62;98.33;100720.31;1814046;79;21439;-74
2024/03/20 08:25:23;;;;;;;10.93;5.95;;;;;;;3.70;98.32;100717.73;1775469;81;21074;-74
2024/03/20 08:27:52;;;;;;;9.98;5.83;;;;;;;3.78;98.28;100719.21;1739784;81;21082;-75
2024/03/20 08:30:22;;;;;;;12.45;5.87;;;;;;;3.86;98.17;100720.69;1794547;79;21058;-75
2024/03/20 08:32:52;;;;;;;12.40;6.15;;;;;;;3.96;98.07;100712.06;1811102;79;21011;-74
2024/03/20 08:35:20;;;;;;;14.23;6.03;;;;;;;4.01;97.88;100713.83;1814162;79;21038;-74
2024/03/20 08:37:49;;;;;;;16.12;6.47;;;;;;;4.09;97.77;100718.51;1782064;80;21030;-76
2024/03/20 08:40:20;;;;;;;12.10;5.65;;;;;;;4.17;97.53;100715.05;1744836;82;21047;-80
2024/03/20 08:42:49;;;;;;;12.88;6.37;;;;;;;4.28;98.75;100718.94;1715484;84;21076;-80
2024/03/20 08:45:19;;;;;;;11.80;5.70;;;;;;;4.44;98.63;100717.28;1788732;80;20967;-80
2024/03/20 08:47:48;;;;;;;11.57;6.40;;;;;;;4.49;97.81;100722.25;1793581;80;21034;-81
2024/03/20 08:50:16;;;;;;;15.20;6.95;;;;;;;4.47;96.93;100726.98;1793454;80;21383;-80
2024/03/20 08:52:46;;;;;;;10.75;6.03;;;;;;;4.46;96.55;100723.91;1793461;80;21002;-80
2024/03/20 08:55:15;;;;;;;12.20;6.50;;;;;;;4.45;96.02;100727.12;1793233;80;21476;-81
2024/03/20 08:57:44;;;;;;;14.47;6.87;;;;;;;4.38;95.52;100714.31;1805312;79;21027;-81
2024/03/20 09:00:13;;;;;;;15.43;6.42;;;;;;;4.33;95.46;100725.62;1814105;79;21555;-79
2024/03/20 09:02:43;;;;;;;11.78;6.22;;;;;;;4.29;95.44;100729.63;1764077;81;21023;-79
2024/03/20 09:05:13;;;;;;;11.55;6.17;;;;;;;4.29;95.45;100735.06;1759664;81;21400;-80
2024/03/20 09:07:42;;;;;;;12.98;6.78;;;;;;;4.31;95.49;100728.13;1757275;82;21089;-80
2024/03/20 09:10:12;;;;;;;11.63;6.00;;;;;;;4.31;95.49;100732.20;1759091;81;21007;-79
2024/03/20 09:12:41;;;;;;;10.82;5.90;;;;;;;4.34;95.99;100732.75;1756423;82;21545;-82
2024/03/20 09:15:11;;;;;;;11.43;5.72;;;;;;;4.37;95.75;100742.45;1758388;81;21079;-82
2024/03/20 09:17:40;;;;;;;12.23;6.30;;;;;;;4.37;95.47;100735.16;1756440;82;21478;-81
2024/03/20 09:20:19;;;;;;;8.95;5.42;;;;;;;4.38;95.43;100726.52;1758723;81;21047;-81
2024/03/20 09:22:55;;;;;;;10.20;5.42;;;;;;;4.39;95.23;100726.88;1756489;82;21070;-77
2024/03/20 09:25:25;;;;;;;10.23;5.70;;;;;;;4.37;94.96;100728.38;1758685;81;21459;-81
2024/03/20 09:27:55;;;;;;;11.85;5.53;;;;;;;4.34;94.69;100733.25;1756131;82;21092;-78
2024/03/20 09:30:25;;;;;;;12.53;6.05;;;;;;;4.34;94.85;100719.69;1758189;81;21098;-79
2024/03/20 09:32:57;;;;;;;10.23;5.70;;;;;;;4.35;94.93;100726.82;1756448;82;21898;-80
2024/03/20 09:35:26;;;;;;;11.03;6.15;;;;;;;4.37;95.04;100723.46;1760390;81;21099;-81
2024/03/20 09:37:55;;;;;;;10.00;6.22;;;;;;;4.40;95.07;100724.02;1745771;81;21079;-80
2024/03/20 09:40:26;;;;;;;14.38;6.80;;;;;;;4.43;95.01;100724.22;1775441;80;21028;-81
2024/03/20 09:42:55;;;;;;;12.73;5.70;;;;;;;4.44;94.98;100731.34;1775957;81;21028;-82
2024/03/20 09:45:27;;;;;;;8.75;4.87;;;;;;;4.45;94.84;100728.98;1775675;80;21051;-82
2024/03/20 09:47:55;;;;;;;12.65;5.33;;;;;;;4.41;94.70;100724.87;1775527;80;21067;-78
2024/03/20 09:50:25;;;;;;;10.45;5.30;;;;;;;4.37;94.77;100723.46;1775757;81;21051;-82
2024/03/20 09:52:55;;;;;;;10.13;5.78;;;;;;;4.34;95.04;100723.76;1775536;81;21051;-82
2024/03/20 09:55:24;;;;;;;10.90;5.53;;;;;;;4.27;95.23;100718.08;1775559;81;21031;-82
2024/03/20 09:57:54;;;;;;;8.98;4.70;;;;;;;4.23;95.62;100724.80;1775552;81;21050;-80
2024/03/20 10:00:27;;;;;;;8.20;5.15;;;;;;;4.24;96.16;100722.44;1775089;81;21039;-83
2024/03/20 10:02:56;;;;;;;9.05;5.10;;;;;;;4.21;96.63;100712.40;1746352;81;21035;-83
2024/03/20 10:05:26;;;;;;;9.18;4.87;;;;;;;4.20;97.04;100718.83;1775563;81;21028;-82
2024/03/20 10:07:56;;;;;;;9.25;4.65;;;;;;;4.21;97.41;100717.32;1775577;80;21110;-82
2024/03/20 10:10:25;;;;;;;10.05;4.95;;;;;;;4.22;97.63;100720.88;1708128;81;21067;-82
2024/03/20 10:12:54;;;;;;;9.30;4.87;;;;;;;4.23;98.16;100719.38;1775913;80;21098;-80
2024/03/20 10:15:24;;;;;;;10.30;5.35;;;;;;;4.21;98.29;100721.89;1687943;83;21055;-81
2024/03/20 10:17:55;;;;;;;12.60;5.05;;;;;;;4.21;98.70;100710.54;1738821;82;21051;-78
2024/03/20 10:20:25;;;;;;;8.75;5.12;;;;;;;4.25;99.08;100709.23;1731800;83;21521;-79
2024/03/20 10:22:54;;;;;;;13.90;6.10;;;;;;;4.27;99.41;100707.73;1731430;83;21110;-79
2024/03/20 10:25:25;;;;;;;9.88;5.47;;;;;;;4.30;99.62;100715.57;1738773;82;21489;-80
2024/03/20 10:27:54;;;;;;;11.12;5.42;;;;;;;4.35;99.81;100707.83;1731297;83;21518;-80
2024/03/20 10:30:23;;;;;;;18.37;7.37;;;;;;;4.44;100.00;100705.58;1738837;82;21043;-78
2024/03/20 10:32:54;;;;;;;9.53;5.70;;;;;;;4.57;100.00;100704.75;1730831;83;21079;-80
2024/03/20 10:35:23;;;;;;;8.88;4.75;;;;;;;5.00;100.00;100699.95;1734320;82;21063;-84
2024/03/20 10:37:52;;;;;;;10.50;5.22;;;;;;;5.02;100.00;100702.52;1789980;80;21051;-81
2024/03/20 10:40:21;;;;;;;8.13;4.87;;;;;;;4.92;100.00;100705.81;1790120;80;21057;-81
2024/03/20 10:43:11;;;;;;;9.78;4.92;;;;;;;4.84;100.00;100700.30;1790148;79;21031;-80
2024/03/20 10:45:42;;;;;;;7.60;4.62;;;;;;;4.77;100.00;100694.13;1716567;83;21476;-81
2024/03/20 10:48:15;;;;;;;9.53;4.92;;;;;;;4.71;99.96;100686.59;1716644;83;21026;-79
2024/03/20 10:50:54;;;;;;;8.38;4.72;;;;;;;4.64;99.79;100691.42;1717735;83;21054;-80
2024/03/20 10:53:24;;;;;;;6.58;4.37;;;;;;;4.62;99.90;100681.23;1716639;83;21032;-80
2024/03/20 10:55:54;;;;;;;9.43;5.08;;;;;;;4.60;99.81;100677.31;1716480;83;21090;-76
2024/03/20 10:58:25;;;;;;;8.88;4.65;;;;;;;4.60;99.88;100674.59;1716661;83;21035;-78
2024/03/20 11:00:55;;;;;;;8.48;4.78;;;;;;;4.64;99.91;100674.64;1716450;83;21765;-81
2024/03/20 11:03:41;;;;;;;7.55;4.83;;;;;;;4.64;99.99;100672.43;1716598;83;21054;-80
2024/03/20 11:06:44;;;;;;;8.93;4.50;;;;;;;4.64;100.00;100676.50;1716782;83;21058;-78
2024/03/20 11:09:15;;;;;;;6.78;3.95;;;;;;;4.65;100.00;100667.35;1713995;83;21082;-77
2024/03/20 11:11:45;;;;;;;7.85;4.80;;;;;;;4.66;100.00;100661.77;1716767;83;21046;-79
2024/03/20 11:14:19;;;;;;;7.20;4.65;;;;;;;4.67;100.00;100662.12;1716653;83;21054;-81
2024/03/20 11:16:49;;;;;;;7.30;4.03;;;;;;;4.69;100.00;100661.47;1716493;83;21046;-79
2024/03/20 11:19:19;;;;;;;10.32;4.30;;;;;;;4.68;100.00;100654.83;1716722;83;21548;-80
2024/03/20 11:21:50;;;;;;;12.95;4.20;;;;;;;4.64;100.00;100651.57;1716596;83;21032;-80
2024/03/20 11:24:19;;;;;;;8.80;3.87;;;;;;;4.63;100.00;100658.51;1716767;83;21042;-80
2024/03/20 11:26:48;;;;;;;7.67;4.03;;;;;;;4.62;100.00;100656.30;1716677;83;21015;-81
2024/03/20 11:29:17;;;;;;;8.73;3.98;;;;;;;4.62;100.00;100659.52;1716707;83;21053;-80
2024/03/20 11:31:46;;;;;;;5.65;3.75;;;;;;;4.63;100.00;100655.30;1716721;83;21061;-76
2024/03/20 11:34:15;;;;;;;8.30;3.80;;;;;;;4.66;100.00;100663.13;1716361;83;21054;-76
2024/03/20 11:36:44;;;;;;;6.20;3.47;;;;;;;4.66;100.00;100667.20;1726897;83;21482;-79
2024/03/20 11:39:13;;;;;;;6.70;3.92;;;;;;;4.65;100.00;100661.42;1731756;83;21016;-74
2024/03/20 11:41:42;;;;;;;7.08;3.58;;;;;;;4.66;100.00;100671.77;1731628;83;21000;-78